Search for airport 
image banner adimage banner ad
image banner ad

DAAG - Alger / Houari Boumediene

Located in Alger, Algeria

ICAO - DAAG, IATA - ALG

Data provided by Airmate  

General information

Coordinates: N36°41'38" E3°12'52"
Elevation is 82 feet MSL.
 
Rated:
View ratings: [VIEW]


View others Airports in Boumerdès Province

Operational data

Open for public use
Current time UTC:
Current local time:
Weather
METAR: DAAG 130000Z 30003KT 270V350 8000 FEW026 26/22 Q1011
TAF: TAF DAAG 122300Z 1300/1324 VRB02KT 8000 FEW026 SCT080 PROB30 TEMPO 1300/1302 FEW030CB PROB40 TEMPO 1302/1307 4000 BR BKN013 BECMG 1310/1313 04010KT BECMG 1318/1321 VRB02KT PROB40 TEMPO 1318/1324 BKN015
View NOTAMs / SUP AIP / TFR affecting this airport [VIEW]
Communications frequencies: [VIEW]

Runways:

RWY identifierQFULength (ft)Width (ft)SurfaceLDA (ft)
0553°11483197ASP
23233°11483197
0992°11483148
27272°11483148

Airport contact information

Address: Alger Algeria

Satellite view of DAAG